Brimson, Minnesota
Current Conditions -  °F | °C
As of 3:34 PM on Wednesday 26 Nov 2014 (Local Time) from KTWM Reporting Station
Overcast Overcast  
Wind Chill:   Ceiling: 3200
Heat Index: 19°   Visibility: 7mi
Dew Point: 10°   Wind: 9mph
Humidity: 68%   Direction: 330°NNW
Pressure: 30.21"   Gusts: NA
Location:  47.28°N, 91.87°W
Report Text: KTWM 262134Z AUTO 33008KT 7SM OVC032 M07/M12 A3021 RMK AO2
Loading
Personal Weather Stations






























Interactive Weather Map New forecast layout! Learn more

10-Day Weather Forecast

Advertisements
Track Severe Weather on mobile